Saturday, November 18, 2017, 6:58 AM EST
Back to Local

KFWN, Sussex Airport

Location: Sussex, NJ, United States Lat: 41.2
Local Time: 6:58 AM EST (11:58 GMT) Lon: -74.633
Time Zone: US/Eastern Elev: 419 ft

Show me the last for .
Show Decoded

2017-11-18 05:53 METAR KFWN 181053Z AUTO 00000KT 10SM CLR M05/M07 A2996 RMK AO2 SLP150 T10501067
                 =
2017-11-18 04:53 METAR KFWN 180953Z AUTO 00000KT 10SM CLR M06/M07 A2998 RMK AO2 SLP154 T10561072
                 =
2017-11-18 03:53 METAR KFWN 180853Z AUTO 00000KT 10SM CLR M05/M07 A2999 RMK AO2 SLP159 T10501072
                 58015 =
2017-11-18 02:53 METAR KFWN 180753Z AUTO 00000KT 10SM CLR M04/M07 A3000 RMK AO2 SLP162 T10441067
                 =
2017-11-18 01:53 METAR KFWN 180653Z AUTO 26003KT 10SM CLR M04/M06 A3003 RMK AO2 SLP174 T10391061
                 =
2017-11-18 00:53 METAR KFWN 180553Z AUTO 00000KT 10SM CLR M03/M07 A3003 RMK AO2 SLP173 T10331067
                 10000 21044 58016 =
2017-11-17 23:53 METAR KFWN 180453Z AUTO 00000KT 10SM CLR M03/M07 A3005 RMK AO2 SLP180 T10281072
                 400781033 =
2017-11-17 22:53 METAR KFWN 180353Z AUTO 00000KT 10SM CLR M02/M07 A3006 RMK AO2 SLP182 T10171072
                 =
2017-11-17 21:53 METAR KFWN 180253Z AUTO 00000KT 10SM CLR 00/M07 A3008 RMK AO2 SLP189 T00001067
                 58007 =
2017-11-17 20:53 METAR KFWN 180153Z AUTO 25005KT 10SM CLR M02/M06 A3008 RMK AO2 SLP191 T10171056
                 =
2017-11-17 19:53 METAR KFWN 180053Z AUTO 00000KT 10SM CLR M02/M07 A3010 RMK AO2 SLP198 T10171067
                 =
2017-11-17 18:53 METAR KFWN 172353Z AUTO 00000KT 10SM CLR M01/M07 A3010 RMK AO2 SLP197 60000
                 T10061067 10078 21006 53003 =
2017-11-17 17:53 METAR KFWN 172253Z AUTO 00000KT 10SM CLR 01/M08 A3010 RMK AO2 SLP195 T00111078 =
2017-11-17 16:53 METAR KFWN 172153Z AUTO 34005KT 10SM CLR 04/M10 A3009 RMK AO2 RAE03 SLP192 P0000
                 T00441100 =
2017-11-17 15:53 METAR KFWN 172053Z AUTO 30007KT 270V350 10SM -RA CLR 06/M09 A3009 RMK AO2 SLP192
                 P0000 60000 T00611089 =
2017-11-17 14:53 METAR KFWN 171953Z AUTO 00000KT 10SM -RA CLR 07/M09 A3008 RMK AO2 RAB25 SLP189
                 P0000 T00721089 =
2017-11-17 13:53 METAR KFWN 171853Z AUTO 29008KT 10SM -RA CLR 07/M08 A3008 RMK AO2 SLP187 P0000
                 T00721078 =
2017-11-17 12:53 METAR KFWN 171753Z AUTO 29008KT 10SM -RA CLR 07/M06 A3008 RMK AO2 RAE02B40
                 SLP187 P0000 60000 T00671061 10067 20028 56010 =
2017-11-17 11:53 METAR KFWN 171653Z AUTO 29009G16KT 260V330 10SM -RA CLR 06/M05 A3008 RMK AO2
                 RAB50 SLP188 P0000 T00561050 =
2017-11-17 10:53 METAR KFWN 171553Z AUTO 29011G20KT 10SM CLR 04/M04 A3009 RMK AO2
                 RAB1456RAEMMSNE11 SLP191 P0000 T00441039 =
2017-11-17 09:53 METAR KFWN 171453Z AUTO 30011G19KT 9SM -SN CLR 04/M04 A3011 RMK AO2
                 RAB1358E03B26E29 SLP198 P0000 60000 T00391039 51017 =
2017-11-17 08:53 METAR KFWN 171353Z AUTO 31008G16KT 9SM -SN OVC032 04/M03 A3011 RMK AO2 RAB37E41
                 SLP197 P0000 T00391033 =
2017-11-17 07:53 METAR KFWN 171253Z AUTO VRB03KT 10SM -SN OVC032 03/M03 A3010 RMK AO2
                 RAE50SNB1159E08B50 SLP193 P0000 T00331033 =

Support USWX by starting your Amazon purchase here.